Time;durP1;ratioP1;P1;durP2;ratioP2;P2;SDS_P1;SDS_P2;PMS_P1;PMS_P2;Temp;Humidity;BMP_temperature;BMP_pressure;BME280_temperature;BME280_humidity;BME280_pressure;Samples;Min_cycle;Max_cycle;Signal;HPM_P1;HPM_P2
2023/01/23 00:02:26;;;;;;;1999.90;999.90;;;;;;;1.79;100.00;103439.66;10415477;28;20049;-68
2023/01/23 00:07:29;;;;;;;1999.90;999.90;;;;;;;1.80;100.00;103433.63;10415031;28;20396;-68
2023/01/23 00:12:31;;;;;;;1999.90;999.90;;;;;;;1.68;100.00;103426.47;10416492;28;20049;-68
2023/01/23 00:17:34;;;;;;;1999.90;999.90;;;;;;;1.80;100.00;103423.28;10415428;28;20052;-67
2023/01/23 00:22:36;;;;;;;1999.90;999.90;;;;;;;1.47;100.00;103426.91;10416202;28;20083;-68
2023/01/23 00:27:38;;;;;;;1999.90;999.90;;;;;;;1.97;100.00;103434.00;10416104;28;20053;-68
2023/01/23 00:32:40;;;;;;;1999.90;999.90;;;;;;;1.90;100.00;103445.03;10414478;28;20049;-68
2023/01/23 00:37:43;;;;;;;1999.90;999.90;;;;;;;1.92;100.00;103449.41;10414641;28;20054;-68
2023/01/23 00:42:45;;;;;;;1999.90;999.90;;;;;;;1.79;100.00;103463.75;10416114;28;20057;-68
2023/01/23 00:47:47;;;;;;;1999.90;999.90;;;;;;;1.83;100.00;103475.03;10414639;28;20104;-68
2023/01/23 00:52:50;;;;;;;1999.90;999.90;;;;;;;1.74;100.00;103467.09;10415664;28;20045;-68
2023/01/23 00:57:52;;;;;;;1999.90;999.90;;;;;;;1.81;100.00;103466.38;10420827;28;20061;-68
2023/01/23 01:02:54;;;;;;;1999.90;999.90;;;;;;;1.70;100.00;103468.75;10396271;28;20057;-68
2023/01/23 01:07:57;;;;;;;1999.90;999.90;;;;;;;1.90;100.00;103463.13;10391933;28;20054;-68
2023/01/23 01:13:00;;;;;;;1999.90;999.90;;;;;;;1.68;100.00;103467.81;10423452;28;20111;-68
2023/01/23 01:18:03;;;;;;;1999.90;999.90;;;;;;;1.70;100.00;103473.00;10436958;28;20049;-68
2023/01/23 01:23:05;;;;;;;1999.90;999.90;;;;;;;1.79;100.00;103465.47;10421244;28;20389;-68
2023/01/23 01:28:08;;;;;;;1999.90;999.90;;;;;;;1.89;100.00;103467.41;10422121;28;20542;-68
2023/01/23 01:33:10;;;;;;;1999.90;999.90;;;;;;;1.96;100.00;103474.47;10421771;28;20049;-68
2023/01/23 01:38:12;;;;;;;1999.90;999.90;;;;;;;2.01;100.00;103482.31;10422401;28;20046;-68
2023/01/23 01:43:25;;;;;;;1999.90;999.90;;;;;;;1.91;100.00;103477.78;10420578;28;20378;-68
2023/01/23 01:48:46;;;;;;;1999.90;999.90;;;;;;;1.86;100.00;103477.69;10421358;28;20528;-68
2023/01/23 01:53:58;;;;;;;1999.90;999.90;;;;;;;1.95;100.00;103482.16;10420387;28;20489;-68
2023/01/23 01:59:01;;;;;;;1999.90;999.90;;;;;;;2.01;100.00;103471.97;10436390;28;20041;-68
2023/01/23 02:04:04;;;;;;;1999.90;999.90;;;;;;;2.00;100.00;103480.56;10436842;28;20053;-68
2023/01/23 02:09:26;;;;;;;1999.90;999.90;;;;;;;1.73;100.00;103481.72;10394655;28;20382;-68
2023/01/23 02:14:29;;;;;;;1999.90;999.90;;;;;;;1.84;100.00;103489.69;10405739;28;20045;-68
2023/01/23 02:19:58;;;;;;;1999.90;999.90;;;;;;;1.92;100.00;103487.31;10436224;28;20046;-68
2023/01/23 02:25:21;;;;;;;1999.90;999.90;;;;;;;1.72;100.00;103482.56;10435380;28;20049;-68
2023/01/23 02:30:24;;;;;;;1999.90;999.90;;;;;;;1.79;100.00;103487.00;10417943;28;20041;-68
2023/01/23 02:35:28;;;;;;;1999.90;999.90;;;;;;;1.83;100.00;103485.38;10420247;28;20054;-68
2023/01/23 02:40:38;;;;;;;1999.90;999.90;;;;;;;2.00;100.00;103478.88;10418944;28;20049;-68
2023/01/23 02:45:41;;;;;;;1999.90;999.90;;;;;;;1.86;100.00;103465.63;10417937;28;20053;-68
2023/01/23 02:50:45;;;;;;;1999.90;999.90;;;;;;;1.77;100.00;103477.50;10419512;28;20499;-68
2023/01/23 02:55:47;;;;;;;1999.90;999.90;;;;;;;1.83;100.00;103482.78;10419212;28;20107;-68
2023/01/23 03:00:49;;;;;;;1999.90;999.90;;;;;;;1.85;100.00;103470.78;10406955;28;20053;-68
2023/01/23 03:05:54;;;;;;;1999.90;999.90;;;;;;;1.85;100.00;103475.97;10377836;28;20057;-68
2023/01/23 03:10:56;;;;;;;1999.90;999.90;;;;;;;1.95;100.00;103477.00;10413099;28;20095;-68
2023/01/23 03:15:58;;;;;;;1999.90;999.90;;;;;;;1.99;100.00;103497.78;10415730;28;20381;-68
2023/01/23 03:21:05;;;;;;;1999.90;999.90;;;;;;;1.92;100.00;103497.63;10421955;23;20091;-68
2023/01/23 03:26:08;;;;;;;1999.90;999.90;;;;;;;2.08;100.00;103486.75;10396806;28;20053;-68
2023/01/23 03:31:11;;;;;;;1999.90;999.90;;;;;;;2.00;100.00;103483.16;10417375;28;20520;-68
2023/01/23 03:36:14;;;;;;;1999.90;999.90;;;;;;;1.87;100.00;103487.19;10417038;28;20081;-68
2023/01/23 03:41:25;;;;;;;1999.90;999.90;;;;;;;1.81;100.00;103494.78;10414592;28;20071;-68
2023/01/23 03:46:27;;;;;;;1999.90;999.90;;;;;;;1.77;100.00;103506.78;10414118;28;20057;-68
2023/01/23 03:51:30;;;;;;;1999.90;999.90;;;;;;;2.00;100.00;103506.41;10396424;28;20045;-68
2023/01/23 03:56:32;;;;;;;1999.90;999.90;;;;;;;1.99;100.00;103502.09;10383899;28;20517;-68
2023/01/23 04:01:35;;;;;;;1999.90;999.90;;;;;;;2.07;100.00;103510.00;10389060;28;20488;-68
2023/01/23 04:06:37;;;;;;;1999.90;999.90;;;;;;;2.11;100.00;103509.22;10415848;28;20064;-68
2023/01/23 04:11:40;;;;;;;1999.90;999.90;;;;;;;1.99;100.00;103510.72;10415117;28;20049;-68
2023/01/23 04:16:42;;;;;;;1999.90;999.90;;;;;;;1.92;100.00;103492.47;10416973;28;20053;-68
2023/01/23 04:21:48;;;;;;;1999.90;999.90;;;;;;;2.09;100.00;103498.88;10414946;28;20061;-68
2023/01/23 04:26:50;;;;;;;1999.90;999.90;;;;;;;2.02;100.00;103513.38;10415542;28;20485;-68
2023/01/23 04:31:53;;;;;;;1999.90;999.90;;;;;;;2.08;100.00;103511.75;10413159;28;20072;-68
2023/01/23 04:36:55;;;;;;;1999.90;999.90;;;;;;;1.92;100.00;103510.56;10412756;28;20506;-68
2023/01/23 04:41:57;;;;;;;1999.90;999.90;;;;;;;2.08;100.00;103520.38;10411540;28;20041;-68
2023/01/23 04:47:00;;;;;;;1999.90;999.90;;;;;;;2.10;100.00;103512.66;10409992;28;20416;-68
2023/01/23 04:52:02;;;;;;;1999.90;999.90;;;;;;;1.97;100.00;103516.69;10412777;28;20115;-68
2023/01/23 04:57:05;;;;;;;1999.90;999.90;;;;;;;2.06;100.00;103518.59;10415483;28;20057;-68
2023/01/23 05:02:08;;;;;;;1999.90;999.90;;;;;;;2.16;100.00;103518.81;10415347;28;20048;-68
2023/01/23 05:07:11;;;;;;;1999.90;999.90;;;;;;;1.97;100.00;103533.06;10414387;28;20069;-68
2023/01/23 05:12:14;;;;;;;1999.90;999.90;;;;;;;2.11;100.00;103535.09;10414014;28;20061;-69
2023/01/23 05:17:16;;;;;;;1999.90;999.90;;;;;;;2.06;100.00;103529.81;10413413;28;20506;-69
2023/01/23 05:22:19;;;;;;;1999.90;999.90;;;;;;;2.17;100.00;103540.38;10412089;28;20068;-68
2023/01/23 05:27:21;;;;;;;1999.90;999.90;;;;;;;2.07;100.00;103533.25;10414906;28;20050;-68
2023/01/23 05:32:23;;;;;;;1999.90;999.90;;;;;;;2.05;100.00;103535.81;10426737;28;20045;-68
2023/01/23 05:37:26;;;;;;;1999.90;999.90;;;;;;;2.15;100.00;103534.28;10413104;28;20049;-68
2023/01/23 05:42:28;;;;;;;1999.90;999.90;;;;;;;2.06;100.00;103540.13;10416331;28;20057;-68
2023/01/23 05:47:30;;;;;;;1999.90;999.90;;;;;;;2.11;100.00;103558.34;10417034;28;20045;-68
2023/01/23 05:52:36;;;;;;;1999.90;999.90;;;;;;;2.06;100.00;103555.66;10419986;28;20061;-69
2023/01/23 05:57:38;;;;;;;1999.90;999.90;;;;;;;2.02;100.00;103561.59;10419117;28;20049;-69
2023/01/23 06:02:41;;;;;;;1999.90;999.90;;;;;;;2.22;100.00;103560.31;10418887;28;20115;-68
2023/01/23 06:07:43;;;;;;;1999.90;999.90;;;;;;;2.04;100.00;103563.38;10421795;28;20543;-68
2023/01/23 06:12:46;;;;;;;1999.90;999.90;;;;;;;2.07;100.00;103566.84;10420581;28;20412;-68
2023/01/23 06:17:48;;;;;;;1999.90;999.90;;;;;;;2.00;100.00;103568.41;10420312;28;20054;-68
2023/01/23 06:22:50;;;;;;;1999.90;999.90;;;;;;;2.16;100.00;103574.81;10417705;28;20521;-68
2023/01/23 06:27:53;;;;;;;1999.90;999.90;;;;;;;2.13;100.00;103574.75;10419116;28;20076;-68
2023/01/23 06:32:56;;;;;;;1999.90;999.90;;;;;;;2.23;100.00;103569.81;10417729;28;20572;-69
2023/01/23 06:37:58;;;;;;;1999.90;999.90;;;;;;;2.26;100.00;103562.97;10418699;28;20096;-69
2023/01/23 06:43:01;;;;;;;1999.90;999.90;;;;;;;2.17;100.00;103567.09;10418930;28;20053;-69
2023/01/23 06:48:03;;;;;;;1999.90;999.90;;;;;;;2.18;100.00;103570.56;10417956;28;20053;-68
2023/01/23 06:53:06;;;;;;;1999.90;999.90;;;;;;;2.12;100.00;103576.47;10417611;28;20059;-68
2023/01/23 06:58:09;;;;;;;1999.90;999.90;;;;;;;2.35;100.00;103582.13;10417527;28;20049;-69
2023/01/23 07:03:17;;;;;;;1999.90;999.90;;;;;;;2.10;100.00;103585.91;10417342;28;20057;-69
2023/01/23 07:08:19;;;;;;;1999.90;999.90;;;;;;;2.35;100.00;103591.59;10417406;28;20048;-68
2023/01/23 07:13:22;;;;;;;1999.90;999.90;;;;;;;2.21;100.00;103591.31;10416045;28;20408;-69
2023/01/23 07:18:27;;;;;;;1999.90;999.90;;;;;;;2.22;100.00;103599.09;10417230;28;20502;-69
2023/01/23 07:23:29;;;;;;;1999.90;999.90;;;;;;;2.15;100.00;103610.16;10377572;28;20046;-69
2023/01/23 07:28:31;;;;;;;1999.90;999.90;;;;;;;2.29;100.00;103601.84;10377199;28;20050;-69
2023/01/23 07:33:34;;;;;;;1999.90;999.90;;;;;;;2.06;100.00;103606.47;10374655;28;20120;-68
2023/01/23 07:38:36;;;;;;;1999.90;999.90;;;;;;;2.04;100.00;103620.22;10391483;28;20042;-69
2023/01/23 07:43:38;;;;;;;1999.90;999.90;;;;;;;2.12;100.00;103620.41;10375910;28;20050;-68
2023/01/23 07:48:41;;;;;;;1999.90;999.90;;;;;;;2.30;100.00;103635.44;10361397;28;20042;-68
2023/01/23 07:53:43;;;;;;;1999.90;999.90;;;;;;;2.18;100.00;103641.22;10370030;28;20053;-69
2023/01/23 07:58:49;;;;;;;1999.90;999.90;;;;;;;2.38;100.00;103640.81;10374409;28;20046;-69
2023/01/23 08:03:52;;;;;;;1999.90;999.90;;;;;;;2.38;100.00;103639.09;10373773;28;20584;-68
2023/01/23 08:08:55;;;;;;;1999.90;999.90;;;;;;;2.31;100.00;103634.63;10373023;28;20089;-69
2023/01/23 08:13:58;;;;;;;1999.90;999.90;;;;;;;2.48;100.00;103642.75;10374945;28;20045;-69
2023/01/23 08:19:00;;;;;;;1999.90;999.90;;;;;;;2.33;100.00;103648.44;10395492;28;20057;-69
2023/01/23 08:24:03;;;;;;;1999.90;999.90;;;;;;;2.34;100.00;103651.94;10416606;28;20049;-69
2023/01/23 08:29:06;;;;;;;1999.90;999.90;;;;;;;2.48;100.00;103645.34;10409905;28;20133;-69
2023/01/23 08:34:08;;;;;;;1999.90;999.90;;;;;;;2.51;100.00;103654.91;10414864;28;20451;-69
2023/01/23 08:39:10;;;;;;;1999.90;999.90;;;;;;;2.55;100.00;103648.94;10406886;28;20123;-69
2023/01/23 08:44:13;;;;;;;1999.90;999.90;;;;;;;2.76;100.00;103658.88;10398323;28;20103;-69
2023/01/23 08:49:18;;;;;;;1999.90;999.90;;;;;;;2.46;100.00;103659.97;10415538;28;20057;-69
2023/01/23 08:54:20;;;;;;;1999.90;999.90;;;;;;;2.56;100.00;103664.50;10414015;28;20443;-69
2023/01/23 08:59:23;;;;;;;1999.90;999.90;;;;;;;2.60;100.00;103668.88;10415519;28;20053;-68
2023/01/23 09:04:25;;;;;;;1999.90;999.90;;;;;;;2.62;100.00;103671.50;10408743;28;20080;-69
2023/01/23 09:09:28;;;;;;;1999.90;999.90;;;;;;;2.76;100.00;103672.69;10414075;28;20045;-69
2023/01/23 09:14:31;;;;;;;1999.90;999.90;;;;;;;2.72;100.00;103672.59;10412497;28;20481;-69
2023/01/23 09:19:33;;;;;;;1999.90;999.90;;;;;;;2.71;100.00;103668.25;10410712;28;20062;-69
2023/01/23 09:24:36;;;;;;;1999.90;999.90;;;;;;;2.85;100.00;103672.00;10386267;28;20060;-69
2023/01/23 09:29:38;;;;;;;1999.90;999.90;;;;;;;2.78;100.00;103657.19;10418847;28;20045;-69
2023/01/23 09:34:40;;;;;;;1999.90;999.90;;;;;;;2.99;100.00;103656.75;10421026;28;20057;-69
2023/01/23 09:39:43;;;;;;;1999.90;999.90;;;;;;;2.90;100.00;103669.53;10419502;28;20558;-69
2023/01/23 09:44:49;;;;;;;1999.90;999.90;;;;;;;3.12;100.00;103668.22;10414823;28;20412;-69
2023/01/23 09:50:01;;;;;;;1999.90;999.90;;;;;;;3.04;100.00;103681.00;10418987;28;20046;-69
2023/01/23 09:55:13;;;;;;;1999.90;999.90;;;;;;;3.25;100.00;103690.94;10403388;28;20076;-69
2023/01/23 10:00:29;;;;;;;1999.90;999.90;;;;;;;3.17;100.00;103687.31;10410695;28;20130;-68
2023/01/23 10:05:56;;;;;;;1999.90;999.90;;;;;;;3.39;100.00;103690.31;10389178;28;20068;-68
2023/01/23 10:10:59;;;;;;;1999.90;999.90;;;;;;;3.24;100.00;103690.91;10390563;28;20047;-68
2023/01/23 10:16:32;;;;;;;1999.90;999.90;;;;;;;3.25;100.00;103687.47;10374375;28;20480;-68
2023/01/23 10:22:28;;;;;;;1999.90;999.90;;;;;;;3.31;100.00;103690.16;10389253;28;20493;-68
2023/01/23 10:27:37;;;;;;;1999.90;999.90;;;;;;;3.59;100.00;103691.56;10386762;28;20046;-68
2023/01/23 10:32:48;;;;;;;1999.90;999.90;;;;;;;3.31;100.00;103690.16;10396342;28;20042;-68
2023/01/23 10:37:55;;;;;;;1999.90;999.90;;;;;;;3.25;100.00;103685.75;10385839;28;20555;-68
2023/01/23 10:43:01;;;;;;;1999.90;999.90;;;;;;;3.51;100.00;103685.38;10384115;28;20081;-69
2023/01/23 10:48:43;;;;;;;1999.90;999.90;;;;;;;3.67;100.00;103684.81;10398857;28;20057;-68
2023/01/23 10:54:03;;;;;;;1999.90;999.90;;;;;;;3.32;100.00;103678.97;10389771;28;20069;-69
2023/01/23 10:59:18;;;;;;;1999.90;999.90;;;;;;;3.56;100.00;103688.91;10417942;28;20042;-69
2023/01/23 11:04:24;;;;;;;1999.90;999.90;;;;;;;3.55;100.00;103692.38;10433627;28;20099;-69
2023/01/23 11:09:26;;;;;;;1999.90;999.90;;;;;;;3.58;100.00;103679.47;10433798;28;20481;-69
2023/01/23 11:14:29;;;;;;;1999.90;999.90;;;;;;;3.51;100.00;103677.59;10418963;28;20049;-69
2023/01/23 11:19:32;;;;;;;1999.90;999.90;;;;;;;3.75;100.00;103690.13;10418456;28;20516;-69
2023/01/23 11:24:36;;;;;;;1999.90;999.90;;;;;;;3.84;100.00;103684.22;10433824;28;20053;-69
2023/01/23 11:30:07;;;;;;;1999.90;999.90;;;;;;;3.82;100.00;103678.16;10432991;28;20405;-69
2023/01/23 11:35:17;;;;;;;1999.90;999.90;;;;;;;3.93;100.00;103673.13;10417484;28;20050;-69
2023/01/23 11:40:20;;;;;;;1999.90;999.90;;;;;;;3.83;100.00;103670.41;10432305;28;20045;-69
2023/01/23 11:45:51;;;;;;;1999.90;999.90;;;;;;;3.70;100.00;103679.69;10417121;28;20500;-69
2023/01/23 11:51:02;;;;;;;1999.90;999.90;;;;;;;3.87;100.00;103673.94;10417414;28;20056;-69
2023/01/23 11:56:25;;;;;;;1999.90;999.90;;;;;;;3.95;100.00;103684.41;10417458;28;20084;-69
2023/01/23 12:01:41;;;;;;;1999.90;999.90;;;;;;;4.04;100.00;103684.56;10415364;28;20042;-69
2023/01/23 12:06:56;;;;;;;1999.90;999.90;;;;;;;4.05;100.00;103676.81;10393990;28;20454;-69
2023/01/23 12:12:09;;;;;;;1999.90;999.90;;;;;;;3.92;100.00;103674.88;10375816;28;20053;-69
2023/01/23 12:17:30;;;;;;;1999.90;999.90;;;;;;;3.83;100.00;103677.28;10375122;28;20409;-69
2023/01/23 12:23:06;;;;;;;1999.90;999.90;;;;;;;4.11;100.00;103678.63;10408566;28;20055;-69
2023/01/23 12:28:47;;;;;;;1999.90;999.90;;;;;;;4.31;100.00;103658.19;10414165;28;20049;-70
2023/01/23 12:34:12;;;;;;;1999.90;999.90;;;;;;;4.12;100.00;103664.81;10394431;28;20100;-70
2023/01/23 12:39:23;;;;;;;1999.90;999.90;;;;;;;4.34;100.00;103649.56;10415936;28;20045;-70
2023/01/23 12:44:36;;;;;;;1999.90;999.90;;;;;;;4.46;100.00;103652.34;10415893;28;20065;-70
2023/01/23 12:50:01;;;;;;;1999.90;999.90;;;;;;;4.54;100.00;103649.84;10415007;28;20048;-70
2023/01/23 12:55:45;;;;;;;1999.90;999.90;;;;;;;4.41;100.00;103654.00;10410990;28;20053;-70
2023/01/23 13:00:56;;;;;;;1999.90;999.90;;;;;;;4.45;100.00;103643.69;10369816;28;20049;-70
2023/01/23 13:05:58;;;;;;;1999.90;999.90;;;;;;;4.19;100.00;103660.59;10407456;28;20057;-70
2023/01/23 13:16:31;;;;;;;1999.90;999.90;;;;;;;4.05;100.00;103658.66;10415241;28;20100;-70
2023/01/23 13:26:54;;;;;;;1999.90;999.90;;;;;;;3.97;100.00;103665.44;10414384;28;20057;-70
2023/01/23 13:32:21;;;;;;;1999.90;999.90;;;;;;;3.69;100.00;103662.38;10414137;28;20064;-70
2023/01/23 13:37:31;;;;;;;1999.90;999.90;;;;;;;3.99;100.00;103673.25;10414156;28;20382;-70
2023/01/23 13:42:34;;;;;;;1999.90;999.90;;;;;;;4.22;100.00;103669.31;10397216;28;20045;-70
2023/01/23 13:58:59;;;;;;;1999.90;999.90;;;;;;;4.60;100.00;103663.78;10130592;29;20713;-70
2023/01/23 14:09:58;;;;;;;1999.90;999.90;;;;;;;5.22;100.00;103673.19;9970033;29;20058;-70
2023/01/23 14:20:54;;;;;;;1999.90;999.90;;;;;;;4.81;100.00;103670.13;9891150;29;20066;-70
2023/01/23 14:25:57;;;;;;;1999.90;999.90;;;;;;;4.57;100.00;103671.53;9962174;29;20410;-70
2023/01/23 14:31:03;;;;;;;1999.90;999.90;;;;;;;4.89;100.00;103676.25;10012219;29;20057;-70
2023/01/23 14:36:10;;;;;;;1999.90;999.90;;;;;;;4.65;100.00;103674.22;10109407;28;20052;-70
2023/01/23 14:41:12;;;;;;;1999.90;999.90;;;;;;;4.54;100.00;103673.19;10236312;28;20051;-70
2023/01/23 14:46:31;;;;;;;1999.90;999.90;;;;;;;4.49;100.00;103646.31;10409063;28;20439;-71
2023/01/23 14:51:35;;;;;;;1999.90;999.90;;;;;;;4.44;100.00;103626.38;10434391;28;20054;-70
2023/01/23 14:56:39;;;;;;;1999.90;999.90;;;;;;;4.37;100.00;103627.16;10433397;28;20408;-70
2023/01/23 15:01:41;;;;;;;1999.90;999.90;;;;;;;4.22;100.00;103629.50;10416853;28;20511;-71
2023/01/23 15:06:51;;;;;;;1999.90;999.90;;;;;;;4.00;100.00;103629.22;10416766;28;20045;-70
2023/01/23 15:11:54;;;;;;;1999.90;999.90;;;;;;;4.06;100.00;103618.03;10416627;28;20053;-70
2023/01/23 15:17:03;;;;;;;1999.90;999.90;;;;;;;4.21;100.00;103607.03;10414741;28;20488;-70
2023/01/23 15:22:20;;;;;;;1999.90;999.90;;;;;;;4.11;100.00;103615.53;10418218;28;20064;-70
2023/01/23 15:27:34;;;;;;;1999.90;999.90;;;;;;;4.05;100.00;103616.28;10433031;28;20128;-70
2023/01/23 15:32:38;;;;;;;1999.90;999.90;;;;;;;3.97;100.00;103608.41;10417024;28;20045;-70
2023/01/23 15:37:46;;;;;;;1999.90;999.90;;;;;;;3.87;100.00;103597.03;10430672;23;20049;-68
2023/01/23 15:43:11;;;;;;;1999.90;999.90;;;;;;;3.79;100.00;103613.31;10432522;28;20492;-69
2023/01/23 15:48:13;;;;;;;1999.90;999.90;;;;;;;3.82;100.00;103621.13;10417027;28;20057;-68
2023/01/23 15:53:16;;;;;;;1999.90;999.90;;;;;;;3.52;100.00;103623.22;10432680;28;20045;-68
2023/01/23 15:58:18;;;;;;;1999.90;999.90;;;;;;;3.75;100.00;103637.41;10431910;28;20052;-68
2023/01/23 16:03:22;;;;;;;1999.90;999.90;;;;;;;3.63;100.00;103646.75;10415238;28;20485;-68
2023/01/23 16:08:24;;;;;;;1999.90;999.90;;;;;;;3.74;100.00;103652.09;10413803;28;20456;-68
2023/01/23 16:13:26;;;;;;;1999.90;999.90;;;;;;;3.42;100.00;103652.41;10415188;28;20045;-68
2023/01/23 16:18:30;;;;;;;1999.90;999.90;;;;;;;3.45;100.00;103644.69;10410827;28;20050;-68
2023/01/23 16:23:33;;;;;;;1999.90;999.90;;;;;;;3.63;100.00;103640.66;10415746;28;20508;-68
2023/01/23 16:28:49;;;;;;;1999.90;999.90;;;;;;;3.43;100.00;103638.63;10415332;28;20056;-68
2023/01/23 16:33:51;;;;;;;1999.90;999.90;;;;;;;3.43;100.00;103651.56;10411330;28;20570;-68
2023/01/23 16:38:55;;;;;;;1999.90;999.90;;;;;;;3.57;100.00;103648.34;10416410;28;20063;-68
2023/01/23 16:43:57;;;;;;;1999.90;999.90;;;;;;;3.34;100.00;103654.84;10414914;28;20047;-66
2023/01/23 16:48:59;;;;;;;1999.90;999.90;;;;;;;3.35;100.00;103659.19;10414692;28;20049;-66
2023/01/23 16:54:02;;;;;;;1999.90;999.90;;;;;;;3.64;100.00;103656.25;10415366;28;20053;-68
2023/01/23 16:59:40;;;;;;;1999.90;999.90;;;;;;;3.57;100.00;103663.91;10414306;28;20099;-68
2023/01/23 17:04:42;;;;;;;1999.90;999.90;;;;;;;3.31;100.00;103674.63;10430361;28;20054;-67
2023/01/23 17:09:46;;;;;;;1999.90;999.90;;;;;;;3.48;100.00;103675.84;10430560;28;20045;-67
2023/01/23 17:14:51;;;;;;;1999.90;999.90;;;;;;;3.50;100.00;103678.47;10425609;28;20443;-67
2023/01/23 17:19:54;;;;;;;1999.90;999.90;;;;;;;3.46;100.00;103682.72;10363612;28;20136;-67
2023/01/23 17:24:56;;;;;;;1999.90;999.90;;;;;;;3.34;100.00;103685.91;10413560;28;20084;-67
2023/01/23 17:29:58;;;;;;;1999.90;999.90;;;;;;;3.24;100.00;103688.31;10412991;28;20041;-67
2023/01/23 17:35:03;;;;;;;1999.90;999.90;;;;;;;3.34;100.00;103685.91;10413139;28;20054;-67
2023/01/23 17:40:08;;;;;;;1999.90;999.90;;;;;;;3.19;100.00;103684.75;10417044;28;20116;-67
2023/01/23 17:45:15;;;;;;;1999.90;999.90;;;;;;;3.22;100.00;103682.25;10420966;28;20061;-67
2023/01/23 17:50:20;;;;;;;1999.90;999.90;;;;;;;3.21;100.00;103688.25;10420917;28;20041;-67
2023/01/23 17:55:27;;;;;;;1999.90;999.90;;;;;;;3.21;100.00;103694.31;10391633;28;20081;-67
2023/01/23 18:00:29;;;;;;;1999.90;999.90;;;;;;;3.40;100.00;103684.31;10420836;28;20410;-67
2023/01/23 18:05:31;;;;;;;1999.90;999.90;;;;;;;3.32;100.00;103694.50;10418124;28;20050;-67
2023/01/23 18:10:34;;;;;;;1999.90;999.90;;;;;;;3.42;100.00;103701.63;10416324;28;20056;-67
2023/01/23 18:15:46;;;;;;;1999.90;999.90;;;;;;;3.33;100.00;103696.28;10419241;28;20046;-67
2023/01/23 18:20:53;;;;;;;1999.90;999.90;;;;;;;3.36;100.00;103698.91;10421122;28;20045;-67
2023/01/23 18:26:06;;;;;;;1999.90;999.90;;;;;;;3.26;100.00;103708.22;10419606;28;20049;-67
2023/01/23 18:31:15;;;;;;;1999.90;999.90;;;;;;;3.22;100.00;103711.59;10386493;28;20046;-67
2023/01/23 18:36:29;;;;;;;1999.90;999.90;;;;;;;3.29;100.00;103705.69;10407756;28;20057;-67
2023/01/23 18:41:32;;;;;;;1999.90;999.90;;;;;;;3.28;100.00;103708.25;10419075;28;20092;-67
2023/01/23 18:46:34;;;;;;;1999.90;999.90;;;;;;;3.22;100.00;103714.19;10420802;28;20054;-66
2023/01/23 18:52:04;;;;;;;1999.90;999.90;;;;;;;3.24;100.00;103706.44;10416530;28;20049;-66
2023/01/23 18:57:33;;;;;;;1999.90;999.90;;;;;;;3.25;100.00;103709.06;10404701;28;20107;-66
2023/01/23 19:02:40;;;;;;;1999.90;999.90;;;;;;;3.27;100.00;103707.38;10417499;28;20085;-66
2023/01/23 19:07:44;;;;;;;1999.90;999.90;;;;;;;3.32;100.00;103718.69;10415985;28;20057;-67
2023/01/23 19:13:07;;;;;;;1999.90;999.90;;;;;;;3.24;100.00;103727.16;10419027;28;20083;-67
2023/01/23 19:18:22;;;;;;;1999.90;999.90;;;;;;;3.23;100.00;103726.28;10388046;28;20065;-67
2023/01/23 19:23:45;;;;;;;1999.90;999.90;;;;;;;3.04;100.00;103718.97;10377180;28;20505;-67
2023/01/23 19:28:49;;;;;;;1999.90;999.90;;;;;;;3.08;100.00;103724.25;10397684;28;20103;-67
2023/01/23 19:33:52;;;;;;;1999.90;999.90;;;;;;;3.02;100.00;103721.53;10415185;28;20443;-67
2023/01/23 19:39:00;;;;;;;1999.90;999.90;;;;;;;2.98;100.00;103719.72;10414872;28;20566;-67
2023/01/23 19:44:03;;;;;;;1999.90;999.90;;;;;;;2.97;100.00;103723.16;10416771;28;20128;-67
2023/01/23 19:49:05;;;;;;;1999.90;999.90;;;;;;;3.05;100.00;103726.78;10415857;28;20050;-67
2023/01/23 19:54:12;;;;;;;1999.90;999.90;;;;;;;2.98;100.00;103727.50;10398684;28;20518;-67
2023/01/23 19:59:14;;;;;;;1999.90;999.90;;;;;;;3.08;100.00;103732.03;10415215;28;20058;-66
2023/01/23 20:04:19;;;;;;;1999.90;999.90;;;;;;;3.20;100.00;103741.75;10415644;28;20049;-67
2023/01/23 20:09:22;;;;;;;1999.90;999.90;;;;;;;3.25;100.00;103741.88;10416784;28;20045;-67
2023/01/23 20:14:24;;;;;;;1999.90;999.90;;;;;;;3.15;100.00;103741.66;10416733;28;20052;-67
2023/01/23 20:19:26;;;;;;;1999.90;999.90;;;;;;;3.11;100.00;103747.63;10414631;28;20050;-67
2023/01/23 20:24:29;;;;;;;1999.90;999.90;;;;;;;3.17;100.00;103744.28;10414116;28;20045;-67
2023/01/23 20:29:31;;;;;;;1999.90;999.90;;;;;;;3.12;100.00;103751.06;10415702;28;20049;-67
2023/01/23 20:34:34;;;;;;;1999.90;999.90;;;;;;;3.13;100.00;103747.66;10413378;28;20472;-67
2023/01/23 20:39:36;;;;;;;1999.90;999.90;;;;;;;3.09;100.00;103753.59;10414157;28;20056;-67
2023/01/23 20:44:39;;;;;;;1999.90;999.90;;;;;;;3.02;100.00;103743.97;10415151;28;20412;-66
2023/01/23 20:49:43;;;;;;;1999.90;999.90;;;;;;;3.11;100.00;103755.38;10416221;28;20052;-67
2023/01/23 20:54:46;;;;;;;1999.90;999.90;;;;;;;2.95;100.00;103755.91;10413567;28;20057;-67
2023/01/23 20:59:48;;;;;;;1999.90;999.90;;;;;;;3.05;100.00;103752.66;10415425;28;20060;-67
2023/01/23 21:04:52;;;;;;;1999.90;999.90;;;;;;;3.13;100.00;103745.94;10413619;28;20067;-66
2023/01/23 21:09:54;;;;;;;1999.90;999.90;;;;;;;2.88;100.00;103746.25;10413184;28;20049;-67
2023/01/23 21:14:56;;;;;;;1999.90;999.90;;;;;;;2.94;100.00;103739.50;10419046;28;20137;-67
2023/01/23 21:19:59;;;;;;;1999.90;999.90;;;;;;;2.89;100.00;103751.47;10422218;28;20049;-66
2023/01/23 21:25:01;;;;;;;1999.90;999.90;;;;;;;2.89;100.00;103743.72;10421435;28;20071;-68
2023/01/23 21:30:04;;;;;;;1999.90;999.90;;;;;;;3.11;100.00;103742.44;10423150;28;20137;-67
2023/01/23 21:35:07;;;;;;;1999.90;999.90;;;;;;;2.85;100.00;103752.22;10420640;28;20523;-67
2023/01/23 21:40:10;;;;;;;1999.90;999.90;;;;;;;3.09;100.00;103751.00;10421320;28;20057;-67
2023/01/23 21:45:12;;;;;;;1999.90;999.90;;;;;;;2.80;100.00;103753.84;10421939;28;20046;-68
2023/01/23 21:50:17;;;;;;;1999.90;999.90;;;;;;;3.03;100.00;103756.06;10420652;28;20103;-68
2023/01/23 21:55:19;;;;;;;1999.90;999.90;;;;;;;3.12;100.00;103758.84;10417941;28;20049;-72
2023/01/23 22:05:43;;;;;;;1999.90;999.90;;;;;;;2.91;100.00;103765.31;10433029;28;20061;-69
2023/01/23 22:10:45;;;;;;;1999.90;999.90;;;;;;;2.90;100.00;103767.88;10420302;28;20049;-69
2023/01/23 22:15:47;;;;;;;1999.90;999.90;;;;;;;2.92;100.00;103772.22;10418822;28;20476;-69
2023/01/23 22:21:09;;;;;;;1999.90;999.90;;;;;;;2.85;100.00;103765.16;10419379;28;20041;-69
2023/01/23 22:26:11;;;;;;;1999.90;999.90;;;;;;;2.82;100.00;103767.69;10419850;28;20053;-69
2023/01/23 22:31:15;;;;;;;1999.90;999.90;;;;;;;2.83;100.00;103769.44;10416064;28;20404;-69
2023/01/23 22:36:19;;;;;;;1999.90;999.90;;;;;;;2.82;100.00;103757.31;10416052;28;20539;-68
2023/01/23 22:41:21;;;;;;;1999.90;999.90;;;;;;;2.73;100.00;103772.66;10419571;28;20057;-67
2023/01/23 22:46:24;;;;;;;1999.90;999.90;;;;;;;2.68;100.00;103785.47;10419564;28;20408;-69
2023/01/23 22:51:27;;;;;;;1999.90;999.90;;;;;;;2.61;100.00;103778.41;10420314;28;20046;-67